createdAt,value
2018-07-19T00:01:25.982Z,2.27
2018-07-19T00:04:00.233Z,2.40
2018-07-19T00:06:34.533Z,2.80
2018-07-19T00:09:09.582Z,2.40
2018-07-19T00:11:43.890Z,2.60
2018-07-19T00:14:18.043Z,2.30
2018-07-19T00:16:52.346Z,2.57
2018-07-19T00:19:26.654Z,2.50
2018-07-19T00:22:00.977Z,2.60
2018-07-19T00:24:35.260Z,2.70
2018-07-19T00:27:09.533Z,2.50
2018-07-19T00:29:43.766Z,2.53
2018-07-19T00:32:18.166Z,3.03
2018-07-19T00:34:52.474Z,2.53
2018-07-19T00:37:26.755Z,2.57
2018-07-19T00:40:00.983Z,2.93
2018-07-19T00:42:35.294Z,2.70
2018-07-19T00:45:09.541Z,2.70
2018-07-19T00:47:43.904Z,2.50
2018-07-19T00:50:18.206Z,2.50
2018-07-19T00:52:52.445Z,3.07
2018-07-19T00:55:26.701Z,2.73
2018-07-19T00:58:00.998Z,2.87
2018-07-19T01:00:35.521Z,2.43
2018-07-19T01:03:09.738Z,2.80
2018-07-19T01:05:44.257Z,2.50
2018-07-19T01:08:18.534Z,2.27
2018-07-19T01:10:52.854Z,3.00
2018-07-19T01:13:27.136Z,2.43
2018-07-19T01:16:01.392Z,2.50
2018-07-19T01:18:35.702Z,2.80
2018-07-19T01:21:09.925Z,2.50
2018-07-19T01:23:44.154Z,2.50
2018-07-19T01:26:18.530Z,2.40
2018-07-19T01:28:52.950Z,2.90
2018-07-19T01:31:27.246Z,2.67
2018-07-19T01:34:01.541Z,2.77
2018-07-19T01:36:35.863Z,2.73
2018-07-19T01:39:11.237Z,2.70
2018-07-19T01:42:24.054Z,3.17
2018-07-19T01:44:58.264Z,2.57
2018-07-19T01:47:32.525Z,3.50
2018-07-19T01:50:07.118Z,3.57
2018-07-19T01:52:41.268Z,3.00
2018-07-19T01:55:15.445Z,2.97
2018-07-19T01:57:49.757Z,3.33
2018-07-19T02:00:24.154Z,2.83
2018-07-19T02:02:58.414Z,2.60
2018-07-19T02:05:32.745Z,2.73
2018-07-19T02:08:07.046Z,2.60
2018-07-19T02:10:41.325Z,2.70
2018-07-19T02:13:15.734Z,2.33
2018-07-19T02:15:49.914Z,2.80
2018-07-19T02:18:24.245Z,3.20
2018-07-19T02:20:58.485Z,3.00
2018-07-19T02:23:32.771Z,2.73
2018-07-19T02:26:07.146Z,3.40
2018-07-19T02:28:41.591Z,2.97
2018-07-19T02:31:15.813Z,2.80
2018-07-19T02:33:50.098Z,3.00
2018-07-19T02:36:24.610Z,2.83
2018-07-19T02:38:59.045Z,2.27
2018-07-19T02:41:33.454Z,2.90
2018-07-19T02:44:09.074Z,2.60
2018-07-19T02:46:44.237Z,3.73
2018-07-19T02:49:18.418Z,2.77
2018-07-19T02:51:52.759Z,2.40
2018-07-19T02:54:27.179Z,2.47
2018-07-19T02:57:01.503Z,2.73
2018-07-19T02:59:35.673Z,2.90
2018-07-19T03:02:09.805Z,3.23
2018-07-19T03:04:43.980Z,2.67
2018-07-19T03:07:18.182Z,2.90
2018-07-19T03:09:52.471Z,3.10
2018-07-19T03:12:26.854Z,2.90
2018-07-19T03:15:01.222Z,2.83
2018-07-19T03:17:35.514Z,3.10
2018-07-19T03:20:09.775Z,3.03
2018-07-19T03:22:44.101Z,2.80
2018-07-19T03:25:18.409Z,3.10
2018-07-19T03:27:52.729Z,3.20
2018-07-19T03:30:27.047Z,3.07
2018-07-19T03:33:01.318Z,2.60
2018-07-19T03:35:35.473Z,2.90
2018-07-19T03:38:09.909Z,2.83
2018-07-19T03:40:44.407Z,4.40
2018-07-19T03:43:18.584Z,3.70
2018-07-19T03:45:52.813Z,3.40
2018-07-19T03:48:27.115Z,3.23
2018-07-19T03:51:01.528Z,3.33
2018-07-19T03:53:35.747Z,3.33
2018-07-19T03:56:10.145Z,3.43
2018-07-19T03:58:44.495Z,3.23
2018-07-19T04:01:18.938Z,3.47
2018-07-19T04:03:53.250Z,3.43
2018-07-19T04:06:27.525Z,3.50
2018-07-19T04:09:01.871Z,3.53
2018-07-19T04:11:36.264Z,3.20
2018-07-19T04:14:10.568Z,3.90
2018-07-19T04:16:45.056Z,3.57
2018-07-19T04:19:19.322Z,3.50
2018-07-19T04:21:53.597Z,3.57
2018-07-19T04:24:28.258Z,3.80
2018-07-19T04:27:02.833Z,3.77
2018-07-19T04:29:37.138Z,3.67
2018-07-19T04:32:11.577Z,3.90
2018-07-19T04:34:45.794Z,3.47
2018-07-19T04:37:20.193Z,3.67
2018-07-19T04:39:54.381Z,4.50
2018-07-19T04:42:28.460Z,4.07
2018-07-19T04:45:03.283Z,3.90
2018-07-19T04:47:37.433Z,4.03
2018-07-19T04:50:11.774Z,4.37
2018-07-19T04:52:46.022Z,4.43
2018-07-19T04:55:20.303Z,4.27
2018-07-19T04:57:54.441Z,4.20
2018-07-19T05:00:28.890Z,4.50
2018-07-19T05:03:03.383Z,4.77
2018-07-19T05:05:37.566Z,4.13
2018-07-19T05:08:11.851Z,4.80
2018-07-19T05:10:46.179Z,5.23
2018-07-19T05:13:20.469Z,4.20
2018-07-19T05:15:54.662Z,4.80
2018-07-19T05:18:28.889Z,4.70
2018-07-19T05:21:03.138Z,5.00
2018-07-19T05:23:37.448Z,5.23
2018-07-19T05:26:11.785Z,4.97
2018-07-19T05:28:46.233Z,6.30
2018-07-19T05:31:20.610Z,5.43
2018-07-19T05:33:54.978Z,5.17
2018-07-19T05:36:29.263Z,5.40
2018-07-19T05:39:05.526Z,5.07
2018-07-19T05:41:39.879Z,6.00
2018-07-19T05:44:14.056Z,5.43
2018-07-19T05:46:48.349Z,5.27
2018-07-19T05:49:22.557Z,5.30
2018-07-19T05:51:56.764Z,5.60
2018-07-19T05:54:31.015Z,4.90
2018-07-19T05:57:05.466Z,4.37
2018-07-19T05:59:39.721Z,4.50
2018-07-19T06:02:14.110Z,4.70
2018-07-19T06:04:48.361Z,4.30
2018-07-19T06:07:22.695Z,4.90
2018-07-19T06:09:57.144Z,4.37
2018-07-19T06:12:31.627Z,4.13
2018-07-19T06:15:06.898Z,4.70
2018-07-19T06:17:41.179Z,4.33
2018-07-19T06:20:15.413Z,4.33
2018-07-19T06:22:49.844Z,4.43
2018-07-19T06:25:24.164Z,4.53
2018-07-19T06:27:58.569Z,4.87
2018-07-19T06:30:33.022Z,3.63
2018-07-19T06:33:07.306Z,3.40
2018-07-19T06:35:41.509Z,3.57
2018-07-19T06:38:15.895Z,4.50
2018-07-19T06:40:50.309Z,4.03
2018-07-19T06:43:24.439Z,3.27
2018-07-19T06:45:58.653Z,3.40
2018-07-19T06:48:32.996Z,3.83
2018-07-19T06:51:07.621Z,3.40
2018-07-19T06:53:42.022Z,3.60
2018-07-19T06:56:16.402Z,3.93
2018-07-19T06:58:50.675Z,3.83
2018-07-19T07:01:24.979Z,2.47
2018-07-19T07:03:59.262Z,2.57
2018-07-19T07:06:33.566Z,2.47
2018-07-19T07:09:09.370Z,3.00
2018-07-19T07:11:43.612Z,2.60
2018-07-19T07:14:17.945Z,2.47
2018-07-19T07:16:52.344Z,2.60
2018-07-19T07:19:26.651Z,2.53
2018-07-19T07:22:00.906Z,2.50
2018-07-19T07:24:35.194Z,3.00
2018-07-19T07:27:09.477Z,2.80
2018-07-19T07:29:43.664Z,2.90
2018-07-19T07:32:18.026Z,2.57
2018-07-19T07:34:52.333Z,2.50
2018-07-19T07:37:26.636Z,2.43
2018-07-19T07:40:00.914Z,2.60
2018-07-19T07:42:35.350Z,2.03
2018-07-19T07:45:09.717Z,2.00
2018-07-19T07:47:44.031Z,2.17
2018-07-19T07:50:18.278Z,2.20
2018-07-19T07:52:52.627Z,2.37
2018-07-19T07:55:26.951Z,2.43
2018-07-19T07:58:01.129Z,1.80
2018-07-19T08:00:35.541Z,2.20
2018-07-19T08:03:09.782Z,2.03
2018-07-19T08:05:44.073Z,2.07
2018-07-19T08:08:18.791Z,1.80
2018-07-19T08:10:53.002Z,2.03
2018-07-19T08:13:27.241Z,1.87
2018-07-19T08:16:01.640Z,2.10
2018-07-19T08:18:35.930Z,1.80
2018-07-19T08:21:10.404Z,2.10
2018-07-19T08:23:44.670Z,1.67
2018-07-19T08:26:18.990Z,2.37
2018-07-19T08:28:53.429Z,1.80
2018-07-19T08:31:27.877Z,2.10
2018-07-19T08:34:02.177Z,2.00
2018-07-19T08:36:36.576Z,1.70
2018-07-19T08:39:13.069Z,1.70
2018-07-19T08:41:47.239Z,2.00
2018-07-19T08:44:21.557Z,1.80
2018-07-19T08:46:55.919Z,2.10
2018-07-19T08:49:30.187Z,2.07
2018-07-19T08:52:04.623Z,2.10
2018-07-19T08:54:38.954Z,2.00
2018-07-19T08:57:13.591Z,2.00
2018-07-19T08:59:47.748Z,2.30
2018-07-19T09:02:22.060Z,1.70
2018-07-19T09:04:56.366Z,2.17
2018-07-19T09:07:30.710Z,1.77
2018-07-19T09:10:05.258Z,2.00
2018-07-19T09:12:39.745Z,1.93
2018-07-19T09:15:14.121Z,2.17
2018-07-19T09:17:48.381Z,2.27
2018-07-19T09:20:22.678Z,1.93
2018-07-19T09:22:56.984Z,2.20
2018-07-19T09:25:31.286Z,2.07
2018-07-19T09:28:05.578Z,2.30
2018-07-19T09:30:39.847Z,2.17
2018-07-19T09:33:14.146Z,2.00
2018-07-19T09:35:48.318Z,2.27
2018-07-19T09:38:22.896Z,2.43
2018-07-19T09:40:57.190Z,2.20
2018-07-19T09:43:31.501Z,1.90
2018-07-19T09:46:05.800Z,2.17
2018-07-19T09:48:40.121Z,2.30
2018-07-19T09:51:14.936Z,2.87
2018-07-19T09:53:49.191Z,2.70
2018-07-19T09:56:23.566Z,1.90
2018-07-19T09:58:57.891Z,2.50
2018-07-19T10:01:32.198Z,2.30
2018-07-19T10:04:06.499Z,2.40
2018-07-19T10:06:40.870Z,2.20
2018-07-19T10:09:15.217Z,2.20
2018-07-19T10:11:49.529Z,2.20
2018-07-19T10:14:23.798Z,2.20
2018-07-19T10:16:58.060Z,3.07
2018-07-19T10:19:32.347Z,2.23
2018-07-19T10:22:06.635Z,2.10
2018-07-19T10:24:40.932Z,2.30
2018-07-19T10:27:15.241Z,2.20
2018-07-19T10:29:49.431Z,2.33
2018-07-19T10:32:23.757Z,2.40
2018-07-19T10:34:58.037Z,2.60
2018-07-19T10:37:32.245Z,2.93
2018-07-19T10:40:06.614Z,2.40
2018-07-19T10:42:40.890Z,2.67
2018-07-19T10:45:15.211Z,2.20
2018-07-19T10:47:49.498Z,2.50
2018-07-19T10:50:23.693Z,2.13
2018-07-19T10:52:58.074Z,2.30
2018-07-19T10:55:32.314Z,2.20
2018-07-19T10:58:06.674Z,2.50
2018-07-19T11:00:40.903Z,2.70
2018-07-19T11:03:15.133Z,2.00
2018-07-19T11:05:49.473Z,2.70
2018-07-19T11:08:23.780Z,2.70
2018-07-19T11:10:58.075Z,2.40
2018-07-19T11:13:32.405Z,2.60
2018-07-19T11:16:06.754Z,2.33
2018-07-19T11:18:40.977Z,2.50
2018-07-19T11:21:15.219Z,2.90
2018-07-19T11:23:49.405Z,3.03
2018-07-19T11:26:23.594Z,3.10
2018-07-19T11:28:57.929Z,2.70
2018-07-19T11:31:32.413Z,2.47
2018-07-19T11:34:06.707Z,2.90
2018-07-19T11:36:40.949Z,3.30
2018-07-19T11:39:15.124Z,2.50
2018-07-19T11:41:49.586Z,3.17
2018-07-19T11:44:23.952Z,2.70
2018-07-19T11:46:58.358Z,3.17
2018-07-19T11:49:32.609Z,3.60
2018-07-19T11:52:06.995Z,2.80
2018-07-19T11:54:41.222Z,2.60
2018-07-19T11:57:15.540Z,2.77
2018-07-19T11:59:49.802Z,3.47
2018-07-19T12:02:24.118Z,2.90
2018-07-19T12:04:58.478Z,3.40
2018-07-19T12:07:32.846Z,2.47
2018-07-19T12:10:07.270Z,2.90
2018-07-19T12:12:41.574Z,2.87
2018-07-19T12:15:15.730Z,3.17
2018-07-19T12:17:50.061Z,3.37
2018-07-19T12:20:24.442Z,3.23
2018-07-19T12:22:58.928Z,3.00
2018-07-19T12:25:33.283Z,3.70
2018-07-19T12:28:07.657Z,2.87
2018-07-19T12:30:41.902Z,3.17
2018-07-19T12:33:16.189Z,3.10
2018-07-19T12:35:50.417Z,2.90
2018-07-19T12:38:24.943Z,2.97
2018-07-19T12:40:59.314Z,3.30
2018-07-19T12:43:33.702Z,2.97
2018-07-19T12:46:07.920Z,2.80
2018-07-19T12:48:42.229Z,2.73
2018-07-19T12:51:16.591Z,2.80
2018-07-19T12:53:50.861Z,2.50
2018-07-19T12:56:25.190Z,3.33
2018-07-19T12:58:59.670Z,2.80
2018-07-19T13:01:34.759Z,3.00
2018-07-19T13:04:09.174Z,3.00
2018-07-19T13:06:43.491Z,3.40
2018-07-19T13:09:17.813Z,2.50
2018-07-19T13:11:52.166Z,2.70
2018-07-19T13:14:26.481Z,2.97
2018-07-19T13:17:00.734Z,2.77
2018-07-19T13:19:34.891Z,2.73
2018-07-19T13:22:09.296Z,2.43
2018-07-19T13:24:43.502Z,2.93
2018-07-19T13:27:17.757Z,2.97
2018-07-19T13:29:52.278Z,2.37
2018-07-19T13:32:26.642Z,2.53
2018-07-19T13:35:00.860Z,2.87
2018-07-19T13:37:35.119Z,2.73
2018-07-19T13:40:09.346Z,2.63
2018-07-19T13:42:43.792Z,2.80
2018-07-19T13:45:18.030Z,2.60
2018-07-19T13:47:52.358Z,3.00
2018-07-19T13:50:26.689Z,2.90
2018-07-19T13:54:10.874Z,2.87
2018-07-19T13:56:45.218Z,2.43
2018-07-19T13:59:19.655Z,2.70
2018-07-19T14:01:54.014Z,2.63
2018-07-19T14:04:28.210Z,2.60
2018-07-19T14:07:02.497Z,2.60
2018-07-19T14:09:36.797Z,2.70
2018-07-19T14:12:11.129Z,2.73
2018-07-19T14:14:45.459Z,3.37
2018-07-19T14:17:19.794Z,2.93
2018-07-19T14:19:54.356Z,2.93
2018-07-19T14:22:28.744Z,2.93
2018-07-19T14:25:03.449Z,2.90
2018-07-19T14:27:37.906Z,2.80
2018-07-19T14:30:12.180Z,2.77
2018-07-19T14:32:46.609Z,3.00
2018-07-19T14:35:20.858Z,2.93
2018-07-19T14:37:55.043Z,3.27
2018-07-19T14:40:29.319Z,3.50
2018-07-19T14:43:03.345Z,3.03
2018-07-19T14:45:37.679Z,2.83
2018-07-19T14:48:12.089Z,2.53
2018-07-19T14:50:46.397Z,3.00
2018-07-19T14:53:20.755Z,3.07
2018-07-19T14:55:55.045Z,2.90
2018-07-19T14:58:29.310Z,3.07
2018-07-19T15:01:03.545Z,2.80
2018-07-19T15:03:38.100Z,2.93
2018-07-19T15:06:12.330Z,3.23
2018-07-19T15:08:46.665Z,3.40
2018-07-19T15:11:21.000Z,2.83
2018-07-19T15:13:55.326Z,2.77
2018-07-19T15:16:29.526Z,2.97
2018-07-19T15:19:03.972Z,2.80
2018-07-19T15:21:38.277Z,3.53
2018-07-19T15:24:12.526Z,2.83
2018-07-19T15:26:46.821Z,2.80
2018-07-19T15:29:21.300Z,2.80
2018-07-19T15:31:55.626Z,2.90
2018-07-19T15:34:29.909Z,2.60
2018-07-19T15:37:04.258Z,3.03
2018-07-19T15:39:38.623Z,3.13
2018-07-19T15:42:12.862Z,2.87
2018-07-19T15:44:47.222Z,2.90
2018-07-19T15:47:21.480Z,3.07
2018-07-19T15:49:55.715Z,2.80
2018-07-19T15:52:29.982Z,2.90
2018-07-19T15:55:04.267Z,3.20
2018-07-19T15:57:38.498Z,2.87
2018-07-19T16:00:12.799Z,3.23
2018-07-19T16:02:54.124Z,3.13
2018-07-19T16:05:28.406Z,2.83
2018-07-19T16:08:02.605Z,2.87
2018-07-19T16:10:37.008Z,3.33
2018-07-19T16:13:11.282Z,2.67
2018-07-19T16:15:45.571Z,2.97
2018-07-19T16:18:20.020Z,2.80
2018-07-19T16:20:54.252Z,2.67
2018-07-19T16:23:28.466Z,2.67
2018-07-19T16:26:02.780Z,3.00
2018-07-19T16:28:37.112Z,2.73
2018-07-19T16:31:11.409Z,2.90
2018-07-19T16:33:45.594Z,3.07
2018-07-19T16:36:19.843Z,3.00
2018-07-19T16:38:54.096Z,2.60
2018-07-19T16:41:28.527Z,2.83
2018-07-19T16:44:02.838Z,3.00
2018-07-19T16:46:37.260Z,2.77
2018-07-19T16:49:11.559Z,2.60
2018-07-19T16:51:45.905Z,3.27
2018-07-19T16:54:20.126Z,2.70
2018-07-19T16:56:55.506Z,2.70
2018-07-19T16:59:29.859Z,3.00
2018-07-19T17:02:04.279Z,2.60
2018-07-19T17:04:38.557Z,2.73
2018-07-19T17:07:12.838Z,2.60
2018-07-19T17:09:47.150Z,2.90
2018-07-19T17:12:21.420Z,2.80
2018-07-19T17:14:55.731Z,3.00
2018-07-19T17:17:30.018Z,3.00
2018-07-19T17:20:04.512Z,3.00
2018-07-19T17:22:38.749Z,2.40
2018-07-19T17:25:13.185Z,2.93
2018-07-19T17:27:47.481Z,2.60
2018-07-19T17:30:21.794Z,2.70
2018-07-19T17:32:55.957Z,2.27
2018-07-19T17:35:30.422Z,2.60
2018-07-19T17:38:05.190Z,3.30
2018-07-19T17:40:39.442Z,2.90
2018-07-19T17:43:13.722Z,2.60
2018-07-19T17:45:47.934Z,2.90
2018-07-19T17:48:22.231Z,2.93
2018-07-19T17:50:56.570Z,3.03
2018-07-19T17:53:30.838Z,2.70
2018-07-19T17:56:05.202Z,3.17
2018-07-19T17:58:39.565Z,3.20
2018-07-19T18:01:13.776Z,2.87
2018-07-19T18:03:48.081Z,3.00
2018-07-19T18:06:22.461Z,2.70
2018-07-19T18:08:56.761Z,2.90
2018-07-19T18:11:31.082Z,3.03
2018-07-19T18:14:05.896Z,3.33
2018-07-19T18:16:40.234Z,3.57
2018-07-19T18:19:14.645Z,3.40
2018-07-19T18:21:48.850Z,2.90
2018-07-19T18:24:23.241Z,3.60
2018-07-19T18:26:57.451Z,3.27
2018-07-19T18:29:31.709Z,3.43
2018-07-19T18:32:06.168Z,3.07
2018-07-19T18:34:40.572Z,3.33
2018-07-19T18:37:14.846Z,3.20
2018-07-19T18:39:49.126Z,2.90
2018-07-19T18:42:23.966Z,3.63
2018-07-19T18:45:10.042Z,3.10
2018-07-19T18:47:45.422Z,3.30
2018-07-19T18:50:30.260Z,2.93
2018-07-19T18:53:04.538Z,2.80
2018-07-19T18:55:38.849Z,3.20
2018-07-19T18:58:13.175Z,3.53
2018-07-19T19:00:47.427Z,3.17
2018-07-19T19:03:21.718Z,3.33
2018-07-19T19:05:56.122Z,3.00
2018-07-19T19:08:30.467Z,3.07
2018-07-19T19:11:04.754Z,3.23
2018-07-19T19:13:39.041Z,2.80
2018-07-19T19:16:13.226Z,3.00
2018-07-19T19:18:47.409Z,3.33
2018-07-19T19:21:21.733Z,3.17
2018-07-19T19:23:55.909Z,4.23
2018-07-19T19:26:30.227Z,3.20
2018-07-19T19:29:04.510Z,3.30
2018-07-19T19:31:38.810Z,2.93
2018-07-19T19:34:13.130Z,3.43
2018-07-19T19:36:47.417Z,3.00
2018-07-19T19:39:21.582Z,3.73
2018-07-19T19:41:56.178Z,3.10
2018-07-19T19:44:30.537Z,3.40
2018-07-19T19:47:04.858Z,3.20
2018-07-19T19:49:39.134Z,2.87
2018-07-19T19:52:13.578Z,3.07
2018-07-19T19:54:48.001Z,3.20
2018-07-19T19:57:22.421Z,3.60
2018-07-19T19:59:56.989Z,3.13
2018-07-19T20:02:31.173Z,3.10
2018-07-19T20:05:05.578Z,3.33
2018-07-19T20:07:40.019Z,3.17
2018-07-19T20:10:14.286Z,3.23
2018-07-19T20:12:48.627Z,3.30
2018-07-19T20:15:22.903Z,3.30
2018-07-19T20:17:57.207Z,3.50
2018-07-19T20:20:31.641Z,3.23
2018-07-19T20:23:06.094Z,3.80
2018-07-19T20:25:40.385Z,3.80
2018-07-19T20:28:14.583Z,3.93
2018-07-19T20:30:48.874Z,3.77
2018-07-19T20:33:23.164Z,3.87
2018-07-19T20:35:57.472Z,3.87
2018-07-19T20:38:31.894Z,3.47
2018-07-19T20:41:06.198Z,3.70
2018-07-19T20:43:40.458Z,3.97
2018-07-19T20:46:15.130Z,4.07
2018-07-19T20:48:49.358Z,3.90
2018-07-19T20:51:23.620Z,4.27
2018-07-19T20:53:57.939Z,3.83
2018-07-19T20:56:32.276Z,4.10
2018-07-19T20:59:06.815Z,3.70
2018-07-19T21:01:41.124Z,4.30
2018-07-19T21:04:15.305Z,4.22
2018-07-19T21:06:49.789Z,3.80
2018-07-19T21:09:24.039Z,3.77
2018-07-19T21:11:58.404Z,4.00
2018-07-19T21:14:32.698Z,4.40
2018-07-19T21:17:06.975Z,4.17
2018-07-19T21:19:41.307Z,4.00
2018-07-19T21:22:15.758Z,4.07
2018-07-19T21:24:49.958Z,4.20
2018-07-19T21:27:24.274Z,4.00
2018-07-19T21:29:58.555Z,4.43
2018-07-19T21:32:32.825Z,4.33
2018-07-19T21:35:07.102Z,4.10
2018-07-19T21:37:41.563Z,4.00
2018-07-19T21:40:16.014Z,4.03
2018-07-19T21:42:50.191Z,4.37
2018-07-19T21:45:24.372Z,4.27
2018-07-19T21:47:58.718Z,3.93
2018-07-19T21:50:33.046Z,4.30
2018-07-19T21:53:07.446Z,4.20
2018-07-19T21:55:41.745Z,4.27
2018-07-19T21:58:15.994Z,4.67
2018-07-19T22:00:55.402Z,4.57
2018-07-19T22:03:29.756Z,4.40
2018-07-19T22:06:04.034Z,5.10
2018-07-19T22:08:38.306Z,4.13
2018-07-19T22:11:12.591Z,4.43
2018-07-19T22:13:46.918Z,4.27
2018-07-19T22:16:21.161Z,4.50
2018-07-19T22:18:55.499Z,4.60
2018-07-19T22:21:29.903Z,4.87
2018-07-19T22:24:04.170Z,4.43
2018-07-19T22:26:38.734Z,4.30
2018-07-19T22:29:12.939Z,5.20
2018-07-19T22:31:47.138Z,4.67
2018-07-19T22:34:21.470Z,4.73
2018-07-19T22:36:55.762Z,4.37
2018-07-19T22:39:30.055Z,4.27
2018-07-19T22:42:04.250Z,4.30
2018-07-19T22:44:38.533Z,4.87
2018-07-19T22:47:12.815Z,4.30
2018-07-19T22:49:47.127Z,4.60
2018-07-19T22:52:21.456Z,4.60
2018-07-19T22:54:55.622Z,4.30
2018-07-19T22:57:29.942Z,4.17
2018-07-19T23:00:04.207Z,5.17
2018-07-19T23:02:38.514Z,4.27
2018-07-19T23:05:12.861Z,4.67
2018-07-19T23:07:47.169Z,4.87
2018-07-19T23:10:21.621Z,4.97
2018-07-19T23:12:55.794Z,4.57
2018-07-19T23:15:30.098Z,4.23
2018-07-19T23:18:04.388Z,4.50
2018-07-19T23:20:38.774Z,4.30
2018-07-19T23:23:13.070Z,5.27
2018-07-19T23:25:47.330Z,4.43
2018-07-19T23:28:21.646Z,4.63
2018-07-19T23:30:55.846Z,4.67
2018-07-19T23:33:30.395Z,4.63
2018-07-19T23:36:07.661Z,4.10
2018-07-19T23:38:48.867Z,4.33
2018-07-19T23:41:38.831Z,4.43
2018-07-19T23:44:18.500Z,4.23
2018-07-19T23:46:56.589Z,4.30
2018-07-19T23:49:30.818Z,4.23
2018-07-19T23:52:05.113Z,4.10
2018-07-19T23:54:39.511Z,4.80
2018-07-19T23:57:13.786Z,4.30
2018-07-19T23:59:48.154Z,5.07
